createdAt,value
2016-12-12T00:00:55.588Z,895.96
2016-12-12T00:01:55.512Z,896.92
2016-12-12T00:02:55.563Z,897.57
2016-12-12T00:03:55.521Z,898.24
2016-12-12T00:04:55.651Z,897.07
2016-12-12T00:05:58.667Z,897.57
2016-12-12T00:06:55.553Z,897.87
2016-12-12T00:07:55.523Z,897.69
2016-12-12T00:08:55.542Z,897.85
2016-12-12T00:09:55.524Z,897.61
2016-12-12T00:10:55.539Z,897.06
2016-12-12T00:11:55.522Z,896.34
2016-12-12T00:12:55.525Z,896.1
2016-12-12T00:13:55.528Z,895.79
2016-12-12T00:14:55.527Z,894.97
2016-12-12T00:15:55.521Z,895.52
2016-12-12T00:16:55.552Z,895.37
2016-12-12T00:17:55.574Z,896.21
2016-12-12T00:18:55.564Z,894.25
2016-12-12T00:19:55.552Z,894.24
2016-12-12T00:20:55.529Z,892.88
2016-12-12T00:21:55.514Z,893.13
2016-12-12T00:22:55.573Z,893.28
2016-12-12T00:23:55.539Z,894.58
2016-12-12T00:24:55.629Z,892.49
2016-12-12T00:25:55.525Z,892.09
2016-12-12T00:27:05.496Z,892.18
2016-12-12T00:27:55.539Z,893.06
2016-12-12T00:28:55.639Z,892.69
2016-12-12T00:29:55.584Z,892.05
2016-12-12T00:30:55.664Z,892.56
2016-12-12T00:31:55.544Z,891.65
2016-12-12T00:32:55.671Z,891.66
2016-12-12T00:33:55.558Z,891.26
2016-12-12T00:34:55.714Z,892.55
2016-12-12T00:35:55.523Z,891.17
2016-12-12T00:36:55.633Z,891.6
2016-12-12T00:37:55.546Z,891.48
2016-12-12T00:38:55.582Z,891.03
2016-12-12T00:39:55.579Z,891.41
2016-12-12T00:40:55.571Z,892.98
2016-12-12T00:41:55.553Z,891.21
2016-12-12T00:42:55.658Z,891.93
2016-12-12T00:43:55.552Z,891.78
2016-12-12T00:44:55.605Z,891.64
2016-12-12T00:45:55.573Z,891.79
2016-12-12T00:46:55.597Z,891.79
2016-12-12T00:47:55.571Z,891.42
2016-12-12T00:48:55.714Z,892.2
2016-12-12T00:49:55.594Z,891.42
2016-12-12T00:50:55.654Z,891.08
2016-12-12T00:51:55.674Z,890.44
2016-12-12T00:52:55.765Z,891.31
2016-12-12T00:53:55.715Z,889.42
2016-12-12T00:54:55.745Z,890.23
2016-12-12T00:55:55.578Z,889.88
2016-12-12T00:56:55.600Z,890.14
2016-12-12T00:57:55.562Z,890.3
2016-12-12T00:58:55.573Z,890.84
2016-12-12T00:59:55.595Z,889.44
2016-12-12T01:00:55.638Z,889.18
2016-12-12T01:01:55.555Z,889.46
2016-12-12T01:02:55.616Z,888.93
2016-12-12T01:03:55.587Z,888.91
2016-12-12T01:04:55.620Z,888.68
2016-12-12T01:05:55.557Z,888.54
2016-12-12T01:06:55.653Z,888.83
2016-12-12T01:07:55.602Z,887.04
2016-12-12T01:08:55.655Z,888.02
2016-12-12T01:09:55.561Z,887.91
2016-12-12T01:10:55.651Z,887.21
2016-12-12T01:11:55.593Z,886.37
2016-12-12T01:12:55.631Z,887.38
2016-12-12T01:13:55.591Z,888.9
2016-12-12T01:14:55.756Z,890.2
2016-12-12T01:15:55.577Z,890.88
2016-12-12T01:16:55.633Z,888.2
2016-12-12T01:17:55.598Z,888.21
2016-12-12T01:18:55.701Z,887.11
2016-12-12T01:19:55.648Z,886.9
2016-12-12T01:20:55.644Z,887.56
2016-12-12T01:21:55.607Z,888.41
2016-12-12T01:22:55.756Z,886.38
2016-12-12T01:23:55.596Z,886.65
2016-12-12T01:24:55.758Z,885.89
2016-12-12T01:25:55.603Z,885.97
2016-12-12T01:26:55.611Z,887.44
2016-12-12T01:27:55.587Z,887.24
2016-12-12T01:28:55.741Z,887.4
2016-12-12T01:29:55.644Z,886.88
2016-12-12T01:30:55.616Z,887.27
2016-12-12T01:31:55.600Z,885.79
2016-12-12T01:32:55.719Z,885.8
2016-12-12T01:33:55.603Z,885.73
2016-12-12T01:34:55.724Z,885.89
2016-12-12T01:35:55.596Z,884.68
2016-12-12T01:36:55.719Z,884.91
2016-12-12T01:37:55.627Z,883.98
2016-12-12T01:38:55.646Z,884.32
2016-12-12T01:39:55.633Z,883.77
2016-12-12T01:40:55.747Z,885.45
2016-12-12T01:41:55.600Z,884.57
2016-12-12T01:42:55.666Z,883.23
2016-12-12T01:43:55.610Z,883.63
2016-12-12T01:44:55.687Z,882.55
2016-12-12T01:45:55.608Z,881.71
2016-12-12T01:46:55.685Z,881.24
2016-12-12T01:47:55.617Z,880.84
2016-12-12T01:48:55.746Z,881.57
2016-12-12T01:49:55.663Z,880.31
2016-12-12T01:50:55.746Z,881.29
2016-12-12T01:51:55.631Z,880.85
2016-12-12T01:52:55.787Z,879.8
2016-12-12T01:53:55.660Z,880.47
2016-12-12T01:54:55.815Z,879.93
2016-12-12T01:55:55.641Z,880.23
2016-12-12T01:56:55.693Z,879.27
2016-12-12T01:57:55.634Z,879.26
2016-12-12T01:58:55.662Z,879.53
2016-12-12T01:59:55.660Z,879.75
2016-12-12T02:00:55.678Z,879.55
2016-12-12T02:01:55.654Z,877.31
2016-12-12T02:02:55.756Z,878.19
2016-12-12T02:03:55.656Z,877.86
2016-12-12T02:04:55.657Z,877.16
2016-12-12T02:05:55.648Z,876.48
2016-12-12T02:06:55.783Z,875.88
2016-12-12T02:07:55.648Z,876.22
2016-12-12T02:08:55.790Z,876.93
2016-12-12T02:09:55.661Z,876.22
2016-12-12T02:10:55.668Z,876.21
2016-12-12T02:11:55.647Z,877.17
2016-12-12T02:12:55.677Z,876.48
2016-12-12T02:13:55.647Z,875.95
2016-12-12T02:14:55.815Z,875.24
2016-12-12T02:15:55.656Z,876.11
2016-12-12T02:16:55.828Z,876.63
2016-12-12T02:17:55.678Z,877.6
2016-12-12T02:18:55.802Z,878.16
2016-12-12T02:19:55.677Z,879.01
2016-12-12T02:20:55.838Z,880.67
2016-12-12T02:21:55.679Z,879.43
2016-12-12T02:22:55.687Z,879.24
2016-12-12T02:23:55.668Z,879.25
2016-12-12T02:24:55.711Z,878.06
2016-12-12T02:25:55.658Z,877.77
2016-12-12T02:26:55.674Z,876.97
2016-12-12T02:27:55.655Z,877.01
2016-12-12T02:28:55.709Z,876.13
2016-12-12T02:29:55.701Z,878.26
2016-12-12T02:30:55.674Z,877.25
2016-12-12T02:31:55.743Z,877.69
2016-12-12T02:32:55.718Z,878.09
2016-12-12T02:33:55.670Z,878.98
2016-12-12T02:34:55.732Z,879.81
2016-12-12T02:35:55.712Z,880.86
2016-12-12T02:36:55.848Z,881.69
2016-12-12T02:37:55.645Z,882.11
2016-12-12T02:38:55.708Z,880.29
2016-12-12T02:39:55.685Z,881.04
2016-12-12T02:40:55.800Z,880.05
2016-12-12T02:41:55.684Z,880.26
2016-12-12T02:42:55.808Z,881.28
2016-12-12T02:43:55.741Z,880.6
2016-12-12T02:44:55.819Z,881.85
2016-12-12T02:45:55.696Z,881.6
2016-12-12T02:46:55.802Z,879.68
2016-12-12T02:47:55.896Z,881.13
2016-12-12T02:48:55.736Z,882.76
2016-12-12T02:49:55.713Z,883.32
2016-12-12T02:50:55.768Z,883.97
2016-12-12T02:51:55.706Z,881.49
2016-12-12T02:52:55.829Z,883.15
2016-12-12T02:53:55.718Z,883.31
2016-12-12T02:54:55.782Z,882.42
2016-12-12T02:55:55.715Z,882.59
2016-12-12T02:56:55.795Z,882.58
2016-12-12T02:57:55.690Z,884.51
2016-12-12T02:58:55.797Z,885
2016-12-12T02:59:55.732Z,883.89
2016-12-12T03:00:55.775Z,884.45
2016-12-12T03:01:55.726Z,884.59
2016-12-12T03:02:55.719Z,885.53
2016-12-12T03:03:55.695Z,886.22
2016-12-12T03:04:55.913Z,885.69
2016-12-12T03:05:55.710Z,886.23
2016-12-12T03:06:55.757Z,887.99
2016-12-12T03:07:55.703Z,887.99
2016-12-12T03:08:55.847Z,888.56
2016-12-12T03:09:55.724Z,889.49
2016-12-12T03:10:55.787Z,889.1
2016-12-12T03:11:55.705Z,888.73
2016-12-12T03:12:55.859Z,889.56
2016-12-12T03:13:55.699Z,889.26
2016-12-12T03:14:55.872Z,888.62
2016-12-12T03:15:55.734Z,889.02
2016-12-12T03:16:55.722Z,889
2016-12-12T03:17:55.810Z,889.6
2016-12-12T03:18:55.739Z,889.72
2016-12-12T03:19:55.744Z,889.07
2016-12-12T03:20:55.808Z,888.87
2016-12-12T03:21:55.728Z,890.52
2016-12-12T03:22:55.746Z,890.66
2016-12-12T03:23:55.735Z,892.3
2016-12-12T03:24:55.768Z,892.27
2016-12-12T03:25:55.728Z,891.2
2016-12-12T03:26:55.757Z,891.53
2016-12-12T03:27:56.108Z,890.81
2016-12-12T03:28:55.815Z,890.66
2016-12-12T03:29:55.758Z,889.16
2016-12-12T03:30:55.829Z,888.72
2016-12-12T03:31:55.719Z,889.96
2016-12-12T03:32:55.854Z,890.03
2016-12-12T03:33:55.746Z,891.08
2016-12-12T03:34:55.845Z,890.42
2016-12-12T03:35:55.748Z,889.79
2016-12-12T03:36:55.782Z,890.49
2016-12-12T03:37:55.747Z,891.11
2016-12-12T03:38:55.778Z,891.18
2016-12-12T03:39:55.765Z,891.08
2016-12-12T03:40:55.838Z,889.54
2016-12-12T03:41:55.734Z,889.58
2016-12-12T03:42:55.765Z,889.96
2016-12-12T03:43:55.738Z,889.71
2016-12-12T03:44:55.833Z,889.07
2016-12-12T03:45:55.758Z,890.36
2016-12-12T03:46:55.828Z,889.93
2016-12-12T03:47:55.760Z,890.76
2016-12-12T03:48:55.788Z,891.84
2016-12-12T03:49:55.755Z,890.55
2016-12-12T03:50:55.886Z,891.34
2016-12-12T03:51:55.770Z,890.95
2016-12-12T03:52:55.897Z,890.09
2016-12-12T03:53:55.768Z,889.45
2016-12-12T03:54:55.958Z,887.86
2016-12-12T03:55:55.765Z,887.43
2016-12-12T03:56:55.776Z,887.81
2016-12-12T03:57:55.795Z,888.95
2016-12-12T03:58:55.837Z,888.67
2016-12-12T03:59:55.784Z,887.74
2016-12-12T04:00:55.817Z,887.21
2016-12-12T04:01:55.766Z,887.05
2016-12-12T04:02:55.788Z,885.83
2016-12-12T04:03:55.769Z,887.07
2016-12-12T04:04:55.876Z,888.17
2016-12-12T04:05:55.799Z,888.33
2016-12-12T04:06:55.795Z,887.22
2016-12-12T04:07:55.773Z,886.22
2016-12-12T04:08:55.806Z,886.5
2016-12-12T04:09:55.820Z,887.16
2016-12-12T04:10:55.878Z,886.52
2016-12-12T04:11:55.777Z,885.8
2016-12-12T04:12:55.936Z,884.48
2016-12-12T04:13:55.797Z,883.48
2016-12-12T04:14:55.846Z,884.89
2016-12-12T04:15:55.778Z,884.96
2016-12-12T04:16:55.805Z,885.22
2016-12-12T04:17:55.786Z,885.07
2016-12-12T04:18:55.830Z,885.38
2016-12-12T04:19:55.853Z,884.92
2016-12-12T04:20:55.914Z,883.18
2016-12-12T04:21:55.867Z,883.07
2016-12-12T04:22:55.896Z,883.32
2016-12-12T04:23:55.810Z,882.5
2016-12-12T04:24:56.816Z,882.13
2016-12-12T04:25:55.807Z,881.39
2016-12-12T04:26:55.940Z,880.89
2016-12-12T04:27:55.807Z,881.8
2016-12-12T04:28:55.891Z,882.37
2016-12-12T04:29:55.819Z,882.68
2016-12-12T04:30:55.887Z,882.25
2016-12-12T04:31:55.807Z,882.08
2016-12-12T04:32:55.946Z,880.93
2016-12-12T04:33:55.825Z,880.67
2016-12-12T04:34:55.951Z,880.23
2016-12-12T04:35:55.816Z,878.72
2016-12-12T04:36:55.849Z,877.53
2016-12-12T04:37:55.838Z,877.93
2016-12-12T04:38:55.836Z,877.26
2016-12-12T04:39:55.888Z,877.45
2016-12-12T04:40:55.855Z,876.95
2016-12-12T04:41:55.802Z,878.09
2016-12-12T04:42:55.816Z,876.72
2016-12-12T04:43:55.827Z,876.44
2016-12-12T04:44:55.936Z,875.35
2016-12-12T04:45:55.804Z,877.18
2016-12-12T04:46:55.838Z,877.15
2016-12-12T04:47:55.843Z,877.44
2016-12-12T04:48:55.854Z,878.11
2016-12-12T04:49:55.893Z,878.7
2016-12-12T04:50:55.847Z,877.83
2016-12-12T04:51:55.828Z,878.29
2016-12-12T04:52:55.852Z,876.91
2016-12-12T04:53:55.873Z,875.14
2016-12-12T04:54:55.874Z,874.83
2016-12-12T04:55:55.835Z,874.28
2016-12-12T04:56:55.843Z,873.47
2016-12-12T04:57:55.882Z,873.87
2016-12-12T04:58:55.860Z,873.95
2016-12-12T04:59:55.875Z,874.45
2016-12-12T05:00:55.863Z,875.46
2016-12-12T05:01:55.838Z,874.61
2016-12-12T05:02:55.881Z,875.44
2016-12-12T05:03:55.835Z,874.19
2016-12-12T05:04:55.886Z,876.14
2016-12-12T05:05:55.841Z,876.59
2016-12-12T05:06:55.908Z,876.26
2016-12-12T05:07:55.861Z,876.42
2016-12-12T05:08:55.858Z,876.27
2016-12-12T05:09:55.886Z,878.02
2016-12-12T05:10:56.033Z,877.73
2016-12-12T05:11:55.868Z,877.37
2016-12-12T05:12:55.955Z,876.65
2016-12-12T05:13:55.865Z,876.11
2016-12-12T05:14:55.930Z,877.49
2016-12-12T05:15:55.861Z,875.56
2016-12-12T05:16:55.982Z,875.79
2016-12-12T05:17:55.858Z,878.02
2016-12-12T05:18:55.945Z,877.61
2016-12-12T05:19:55.871Z,878.36
2016-12-12T05:20:55.975Z,879.11
2016-12-12T05:21:55.882Z,879.83
2016-12-12T05:22:55.923Z,878.56
2016-12-12T05:23:55.851Z,877.73
2016-12-12T05:24:55.890Z,878.1
2016-12-12T05:25:55.867Z,877.68
2016-12-12T05:26:55.892Z,878.78
2016-12-12T05:27:55.859Z,878.13
2016-12-12T05:28:55.904Z,877.97
2016-12-12T05:29:55.902Z,878.38
2016-12-12T05:30:55.949Z,879.94
2016-12-12T05:31:55.858Z,879.38
2016-12-12T05:32:56.045Z,879.51
2016-12-12T05:33:55.894Z,880.92
2016-12-12T05:34:56.061Z,880.22
2016-12-12T05:35:55.863Z,880.1
2016-12-12T05:36:55.934Z,880.49
2016-12-12T05:37:55.883Z,881.44
2016-12-12T05:38:56.037Z,881.93
2016-12-12T05:39:55.961Z,880.56
2016-12-12T05:40:55.925Z,881.82
2016-12-12T05:41:55.880Z,880.96
2016-12-12T05:42:55.913Z,880.01
2016-12-12T05:43:55.893Z,880.6
2016-12-12T05:44:56.031Z,880.82
2016-12-12T05:45:55.899Z,882.05
2016-12-12T05:46:56.014Z,881.91
2016-12-12T05:47:55.953Z,882.57
2016-12-12T05:48:56.024Z,881.66
2016-12-12T05:49:55.910Z,882.65
2016-12-12T05:50:56.003Z,883.78
2016-12-12T05:51:55.874Z,882.85
2016-12-12T05:52:55.931Z,882.29
2016-12-12T05:53:55.909Z,882.67
2016-12-12T05:54:56.004Z,883.84
2016-12-12T05:55:55.928Z,885.33
2016-12-12T05:56:55.938Z,885.03
2016-12-12T05:57:55.913Z,884.92
2016-12-12T05:58:55.920Z,884.93
2016-12-12T05:59:55.923Z,885.04
2016-12-12T06:00:56.073Z,885.79
2016-12-12T06:01:56.560Z,886.75
2016-12-12T06:02:55.921Z,886.76
2016-12-12T06:03:55.922Z,886.3
2016-12-12T06:04:56.151Z,886.93
2016-12-12T06:05:55.898Z,886.37
2016-12-12T06:06:56.007Z,887.08
2016-12-12T06:07:55.943Z,886.8
2016-12-12T06:08:55.962Z,887.38
2016-12-12T06:09:55.921Z,888.44
2016-12-12T06:10:56.066Z,889.39
2016-12-12T06:11:55.929Z,888.02
2016-12-12T06:12:58.874Z,888.02
2016-12-12T06:13:55.961Z,888.58
2016-12-12T06:14:56.047Z,888.46
2016-12-12T06:15:55.931Z,888.86
2016-12-12T06:16:56.042Z,890.21
2016-12-12T06:17:55.945Z,890.66
2016-12-12T06:18:55.954Z,891.17
2016-12-12T06:19:55.937Z,890.75
2016-12-12T06:20:55.992Z,890.65
2016-12-12T06:21:55.935Z,891.76
2016-12-12T06:22:55.960Z,891.49
2016-12-12T06:23:55.972Z,892.12
2016-12-12T06:24:55.993Z,891.3
2016-12-12T06:25:55.919Z,891.44
2016-12-12T06:26:56.051Z,892.32
2016-12-12T06:27:55.944Z,892.73
2016-12-12T06:28:56.088Z,892.87
2016-12-12T06:29:55.968Z,892.21
2016-12-12T06:30:56.020Z,891.86
2016-12-12T06:31:55.964Z,892.39
2016-12-12T06:32:56.103Z,892.41
2016-12-12T06:33:55.963Z,892.8
2016-12-12T06:34:56.417Z,892.56
2016-12-12T06:35:55.976Z,893.25
2016-12-12T06:36:56.003Z,894.36
2016-12-12T06:37:55.967Z,893.41
2016-12-12T06:38:56.118Z,894.03
2016-12-12T06:39:56.035Z,895.3
2016-12-12T06:40:56.075Z,894.89
2016-12-12T06:41:55.970Z,894.28
2016-12-12T06:42:56.027Z,895.76
2016-12-12T06:43:55.978Z,896.03
2016-12-12T06:44:56.047Z,895.75
2016-12-12T06:45:55.995Z,893.76
2016-12-12T06:46:56.075Z,893.76
2016-12-12T06:47:55.987Z,895.51
2016-12-12T06:48:56.061Z,896.49
2016-12-12T06:49:56.003Z,895.68
2016-12-12T06:50:56.099Z,894.88
2016-12-12T06:51:55.964Z,894.24
2016-12-12T06:52:56.106Z,893.75
2016-12-12T06:53:55.987Z,894.03
2016-12-12T06:54:56.086Z,895.45
2016-12-12T06:55:56.003Z,895.01
2016-12-12T06:56:56.040Z,893.92
2016-12-12T06:57:55.994Z,895.38
2016-12-12T06:58:56.019Z,895.88
2016-12-12T06:59:56.043Z,896.44
2016-12-12T07:00:56.155Z,897.16
2016-12-12T07:01:55.971Z,895.39
2016-12-12T07:02:56.046Z,896.64
2016-12-12T07:03:56.005Z,896.2
2016-12-12T07:04:56.153Z,897.2
2016-12-12T07:05:56.008Z,895.6
2016-12-12T07:06:56.026Z,895.17
2016-12-12T07:07:55.996Z,894.79
2016-12-12T07:08:56.089Z,894.95
2016-12-12T07:09:56.024Z,894.97
2016-12-12T07:10:56.045Z,895.52
2016-12-12T07:11:56.055Z,896.12
2016-12-12T07:12:56.054Z,895.36
2016-12-12T07:13:56.003Z,894.83
2016-12-12T07:14:56.065Z,895.67
2016-12-12T07:15:55.994Z,894.38
2016-12-12T07:16:56.027Z,893.12
2016-12-12T07:17:56.025Z,892.94
2016-12-12T07:18:56.069Z,894.58
2016-12-12T07:19:56.028Z,894.87
2016-12-12T07:20:56.142Z,895.44
2016-12-12T07:21:56.048Z,896.21
2016-12-12T07:22:56.144Z,897.22
2016-12-12T07:23:55.988Z,897.53
2016-12-12T07:24:56.178Z,897.01
2016-12-12T07:25:56.016Z,897.43
2016-12-12T07:26:56.047Z,898.36
2016-12-12T07:27:56.036Z,897.81
2016-12-12T07:28:56.147Z,897.72
2016-12-12T07:29:56.037Z,898.11
2016-12-12T07:30:56.038Z,898.12
2016-12-12T07:31:56.025Z,898.67
2016-12-12T07:32:56.132Z,898.7
2016-12-12T07:33:56.025Z,898.95
2016-12-12T07:34:56.094Z,899.15
2016-12-12T07:35:56.036Z,899.27
2016-12-12T07:36:56.043Z,899.53
2016-12-12T07:37:56.095Z,899.72
2016-12-12T07:38:56.161Z,900.03
2016-12-12T07:39:56.085Z,900.33
2016-12-12T07:40:56.183Z,900.85
2016-12-12T07:41:56.047Z,900.86
2016-12-12T07:42:56.128Z,901.68
2016-12-12T07:43:56.052Z,902.51
2016-12-12T07:44:56.105Z,902.91
2016-12-12T07:45:56.027Z,904.28
2016-12-12T07:46:56.092Z,905.33
2016-12-12T07:47:56.036Z,906.11
2016-12-12T07:48:56.047Z,906.54
2016-12-12T07:50:06.157Z,906.03
2016-12-12T07:50:56.143Z,906.63
2016-12-12T07:51:56.047Z,907.11
2016-12-12T07:52:56.155Z,907.79
2016-12-12T07:53:56.070Z,908.34
2016-12-12T07:54:56.207Z,908.82
2016-12-12T07:55:56.071Z,909.93
2016-12-12T07:56:56.084Z,911.52
2016-12-12T07:57:56.041Z,911.11
2016-12-12T07:58:56.105Z,911.53
2016-12-12T07:59:56.097Z,913.09
2016-12-12T08:00:56.243Z,913.64
2016-12-12T08:01:56.091Z,914.45
2016-12-12T08:02:56.122Z,914.19
2016-12-12T08:03:56.087Z,914.61
2016-12-12T08:04:56.198Z,916.47
2016-12-12T08:05:56.088Z,916.39
2016-12-12T08:06:56.155Z,916.65
2016-12-12T08:07:56.091Z,917.99
2016-12-12T08:08:56.245Z,918.24
2016-12-12T08:09:56.079Z,918.75
2016-12-12T08:10:56.228Z,917.59
2016-12-12T08:11:56.109Z,919.15
2016-12-12T08:12:56.183Z,920.71
2016-12-12T08:13:56.084Z,921.36
2016-12-12T08:14:56.119Z,921.86
2016-12-12T08:15:56.084Z,922.6
2016-12-12T08:16:56.109Z,922.48
2016-12-12T08:17:56.076Z,923.58
2016-12-12T08:18:56.250Z,923.46
2016-12-12T08:19:56.127Z,925.27
2016-12-12T08:20:56.166Z,925.82
2016-12-12T08:21:56.102Z,926.17
2016-12-12T08:22:56.087Z,926.3
2016-12-12T08:23:56.106Z,926.5
2016-12-12T08:24:56.149Z,926.03
2016-12-12T08:25:56.090Z,926.7
2016-12-12T08:26:56.201Z,925.84
2016-12-12T08:27:56.087Z,927.52
2016-12-12T08:28:56.244Z,924.69
2016-12-12T08:29:56.177Z,924.45
2016-12-12T08:30:56.214Z,928.01
2016-12-12T08:31:56.193Z,929.7
2016-12-12T08:32:56.173Z,926.81
2016-12-12T08:33:56.084Z,928.83
2016-12-12T08:34:56.179Z,930.28
2016-12-12T08:35:56.102Z,931.78
2016-12-12T08:36:56.833Z,932.14
2016-12-12T08:37:56.111Z,934.16
2016-12-12T08:38:56.114Z,933.37
2016-12-12T08:39:56.196Z,932.79
2016-12-12T08:40:56.178Z,932.94
2016-12-12T08:41:56.135Z,933.95
2016-12-12T08:43:06.072Z,934.64
2016-12-12T08:43:56.097Z,936.25
2016-12-12T08:44:56.167Z,938.68
2016-12-12T08:45:56.108Z,941.1
2016-12-12T08:46:56.210Z,942.75
2016-12-12T08:47:56.105Z,943.39
2016-12-12T08:48:56.256Z,943.37
2016-12-12T08:49:56.124Z,943.59
2016-12-12T08:50:56.163Z,945.81
2016-12-12T08:51:56.128Z,944.54
2016-12-12T08:52:56.127Z,948.52
2016-12-12T08:53:56.134Z,949.7
2016-12-12T08:54:56.170Z,953.69
2016-12-12T08:55:56.135Z,954.29
2016-12-12T08:56:56.232Z,954.53
2016-12-12T08:57:56.121Z,955.55
2016-12-12T08:58:56.258Z,956.17
2016-12-12T08:59:56.180Z,955.41
2016-12-12T09:00:56.187Z,956.94
2016-12-12T09:01:56.126Z,959.49
2016-12-12T09:02:56.146Z,960.91
2016-12-12T09:03:56.138Z,961.44
2016-12-12T09:04:56.171Z,960.24
2016-12-12T09:05:56.137Z,959.6
2016-12-12T09:06:56.221Z,962.59
2016-12-12T09:07:56.145Z,961.65
2016-12-12T09:08:56.256Z,960.85
2016-12-12T09:09:56.158Z,962.52
2016-12-12T09:10:56.177Z,964.15
2016-12-12T09:11:56.227Z,965.07
2016-12-12T09:12:56.154Z,965.01
2016-12-12T09:13:56.150Z,966.68
2016-12-12T09:14:56.286Z,966.35
2016-12-12T09:15:56.124Z,964.9
2016-12-12T09:16:56.238Z,962.47
2016-12-12T09:17:56.177Z,964.24
2016-12-12T09:18:56.185Z,962.53
2016-12-12T09:19:56.178Z,963.74
2016-12-12T09:20:56.173Z,965.62
2016-12-12T09:21:56.153Z,964.2
2016-12-12T09:22:56.201Z,965.92
2016-12-12T09:23:56.157Z,968.67
2016-12-12T09:24:56.220Z,969.8
2016-12-12T09:25:57.173Z,970.6
2016-12-12T09:26:56.214Z,968.73
2016-12-12T09:27:56.166Z,970.52
2016-12-12T09:28:56.253Z,969.06
2016-12-12T09:29:56.240Z,970.46
2016-12-12T09:30:56.167Z,968.55
2016-12-12T09:31:56.170Z,971.31
2016-12-12T09:32:56.186Z,975.52
2016-12-12T09:33:56.165Z,976.02
2016-12-12T09:34:56.231Z,974.91
2016-12-12T09:35:56.205Z,972.24
2016-12-12T09:36:56.298Z,973.29
2016-12-12T09:37:56.206Z,970.98
2016-12-12T09:38:56.293Z,973.01
2016-12-12T09:39:56.215Z,974.32
2016-12-12T09:40:56.206Z,972.33
2016-12-12T09:41:56.181Z,973.26
2016-12-12T09:42:56.224Z,975.32
2016-12-12T09:43:56.257Z,973.82
2016-12-12T09:44:56.303Z,972.45
2016-12-12T09:45:56.214Z,972.94
2016-12-12T09:46:56.247Z,973.41
2016-12-12T09:47:56.203Z,973.52
2016-12-12T09:48:56.305Z,974.55
2016-12-12T09:49:56.208Z,974.63
2016-12-12T09:50:56.234Z,973.21
2016-12-12T09:51:56.210Z,973.51
2016-12-12T09:52:56.301Z,973.71
2016-12-12T09:53:56.199Z,970.82
2016-12-12T09:54:56.376Z,969.14
2016-12-12T09:55:56.183Z,973.26
2016-12-12T09:56:56.243Z,974.17
2016-12-12T09:57:56.207Z,974.12
2016-12-12T09:58:56.206Z,973.22
2016-12-12T09:59:56.211Z,971.88
2016-12-12T10:00:56.302Z,971.47
2016-12-12T10:01:56.208Z,970.4
2016-12-12T10:02:56.227Z,967.85
2016-12-12T10:03:56.232Z,967.76
2016-12-12T10:04:56.250Z,966.34
2016-12-12T10:05:56.215Z,966.5
2016-12-12T10:06:56.227Z,964.47
2016-12-12T10:07:56.233Z,965.9
2016-12-12T10:08:56.247Z,966.62
2016-12-12T10:09:56.265Z,964.03
2016-12-12T10:10:56.267Z,960.92
2016-12-12T10:11:56.202Z,962.11
2016-12-12T10:12:56.241Z,965
2016-12-12T10:13:56.230Z,968.55
2016-12-12T10:14:56.280Z,965.86
2016-12-12T10:15:56.251Z,965.74
2016-12-12T10:16:56.242Z,967.02
2016-12-12T10:17:56.278Z,964.16
2016-12-12T10:18:56.241Z,961.51
2016-12-12T10:19:56.223Z,963.17
2016-12-12T10:20:56.207Z,964.33
2016-12-12T10:21:56.228Z,964.42
2016-12-12T10:22:56.278Z,970.19
2016-12-12T10:23:56.239Z,974.9
2016-12-12T10:24:56.718Z,973.38
2016-12-12T10:25:56.214Z,972.32
2016-12-12T10:26:56.281Z,969.79
2016-12-12T10:27:56.258Z,971.3
2016-12-12T10:28:56.307Z,970.48
2016-12-12T10:29:56.230Z,968.65
2016-12-12T10:30:56.268Z,970.32
2016-12-12T10:31:56.227Z,971.07
2016-12-12T10:32:56.250Z,973.06
2016-12-12T10:33:56.267Z,976.88
2016-12-12T10:34:56.337Z,977.38
2016-12-12T10:35:56.297Z,977.67
2016-12-12T10:36:56.307Z,976.68
2016-12-12T10:37:56.269Z,978.65
2016-12-12T10:38:56.274Z,979
2016-12-12T10:39:56.283Z,974.64
2016-12-12T10:40:56.347Z,972.69
2016-12-12T10:41:56.295Z,972.86
2016-12-12T10:42:56.331Z,974.36
2016-12-12T10:43:56.266Z,971.24
2016-12-12T10:44:56.357Z,968.41
2016-12-12T10:45:56.258Z,966.42
2016-12-12T10:46:56.301Z,969.38
2016-12-12T10:47:56.264Z,970.88
2016-12-12T10:48:56.296Z,970.6
2016-12-12T10:49:56.275Z,968.23
2016-12-12T10:50:56.272Z,964.86
2016-12-12T10:51:56.278Z,963.93
2016-12-12T10:52:56.319Z,968.47
2016-12-12T10:53:56.299Z,970.67
2016-12-12T10:54:56.346Z,970.49
2016-12-12T10:55:56.331Z,967.77
2016-12-12T10:56:56.344Z,969.29
2016-12-12T10:57:56.305Z,969.39
2016-12-12T10:58:56.274Z,968.71
2016-12-12T10:59:56.262Z,966.56
2016-12-12T11:00:56.311Z,965.19
2016-12-12T11:01:56.281Z,960.22
2016-12-12T11:02:56.383Z,957.13
2016-12-12T11:03:56.305Z,957.96
2016-12-12T11:04:56.332Z,961.55
2016-12-12T11:05:56.309Z,961.77
2016-12-12T11:06:56.346Z,962.22
2016-12-12T11:07:56.297Z,960.99
2016-12-12T11:08:56.375Z,959.94
2016-12-12T11:09:56.310Z,959.21
2016-12-12T11:10:56.373Z,960.97
2016-12-12T11:11:56.502Z,961.48
2016-12-12T11:12:56.363Z,961.83
2016-12-12T11:13:56.327Z,964.12
2016-12-12T11:14:56.338Z,962.75
2016-12-12T11:15:56.315Z,964.01
2016-12-12T11:16:56.357Z,963.15
2016-12-12T11:17:56.310Z,966.05
2016-12-12T11:18:56.390Z,966.95
2016-12-12T11:19:56.280Z,966.26
2016-12-12T11:20:56.391Z,967.6
2016-12-12T11:21:56.357Z,969.83
2016-12-12T11:22:56.938Z,971.05
2016-12-12T11:23:56.325Z,971.28
2016-12-12T11:24:56.398Z,972.68
2016-12-12T11:25:56.346Z,971.96
2016-12-12T11:26:56.455Z,971.02
2016-12-12T11:27:56.337Z,971.56
2016-12-12T11:28:56.357Z,971.14
2016-12-12T11:29:56.338Z,973.95
2016-12-12T11:30:56.426Z,974.17
2016-12-12T11:31:56.335Z,974.16
2016-12-12T11:32:56.448Z,976.99
2016-12-12T11:33:56.326Z,977.64
2016-12-12T11:34:56.436Z,982.88
2016-12-12T11:35:56.329Z,984.7
2016-12-12T11:36:56.354Z,984.28
2016-12-12T11:37:56.323Z,983.73
2016-12-12T11:38:56.331Z,986.12
2016-12-12T11:39:56.351Z,989.9
2016-12-12T11:40:56.486Z,998.49
2016-12-12T11:41:56.359Z,1003.47
2016-12-12T11:42:56.347Z,1006.14
2016-12-12T11:43:56.345Z,1006.36
2016-12-12T11:44:56.412Z,1003.23
2016-12-12T11:45:56.369Z,999.31
2016-12-12T11:46:56.376Z,998.55
2016-12-12T11:47:56.388Z,995.56
2016-12-12T11:48:56.476Z,997.62
2016-12-12T11:49:56.329Z,1005.17
2016-12-12T11:50:56.336Z,1006.93
2016-12-12T11:51:56.340Z,1006
2016-12-12T11:52:56.355Z,1002.73
2016-12-12T11:53:56.349Z,1000.81
2016-12-12T11:54:57.166Z,1003.96
2016-12-12T11:55:56.361Z,1006.35
2016-12-12T11:56:56.390Z,1012.31
2016-12-12T11:57:56.356Z,1015.19
2016-12-12T11:58:56.356Z,1017.26
2016-12-12T11:59:56.366Z,1017.09
2016-12-12T12:00:56.395Z,1015.61
2016-12-12T12:01:56.345Z,1008.2
2016-12-12T12:02:56.386Z,1008.42
2016-12-12T12:03:56.353Z,1003.08
2016-12-12T12:04:56.480Z,1002.04
2016-12-12T12:05:56.340Z,1003.03
2016-12-12T12:06:56.393Z,1002.87
2016-12-12T12:07:56.358Z,1000.12
2016-12-12T12:08:56.485Z,996.77
2016-12-12T12:09:56.361Z,997.63
2016-12-12T12:10:56.450Z,998.71
2016-12-12T12:11:56.378Z,1003
2016-12-12T12:12:56.390Z,1005.54
2016-12-12T12:13:56.347Z,1002.09
2016-12-12T12:14:56.397Z,1001.18
2016-12-12T12:15:56.372Z,1003.12
2016-12-12T12:16:56.393Z,1007.01
2016-12-12T12:17:56.362Z,1009.16
2016-12-12T12:18:56.499Z,1009.85
2016-12-12T12:19:56.451Z,1005.93
2016-12-12T12:20:56.479Z,1000.79
2016-12-12T12:21:56.387Z,1000.5
2016-12-12T12:22:56.535Z,1001.49
2016-12-12T12:23:56.339Z,999.92
2016-12-12T12:24:56.507Z,1000.3
2016-12-12T12:25:56.384Z,996.71
2016-12-12T12:26:56.401Z,992.68
2016-12-12T12:27:56.366Z,993.76
2016-12-12T12:28:56.442Z,991.85
2016-12-12T12:29:56.393Z,988.79